Time;durP1;ratioP1;P1;durP2;ratioP2;P2;SDS_P1;SDS_P2;PMS_P1;PMS_P2;Temp;Humidity;BMP_temperature;BMP_pressure;BME280_temperature;BME280_humidity;BME280_pressure;Samples;Min_cycle;Max_cycle;Signal;HPM_P1;HPM_P2
2023/02/19 00:02:22;;;;;;;17.23;12.77;;;11.70;99.90;;;;;;5061321;28;20574;-66
2023/02/19 00:04:47;;;;;;;17.63;13.13;;;11.80;99.90;;;;;;5059635;28;20317;-66
2023/02/19 00:07:13;;;;;;;17.97;13.93;;;11.70;99.90;;;;;;5057871;28;20186;-66
2023/02/19 00:09:38;;;;;;;18.57;14.43;;;11.70;99.90;;;;;;5055639;28;20634;-66
2023/02/19 00:12:05;;;;;;;19.30;14.70;;;11.60;99.90;;;;;;5054444;28;20598;-66
2023/02/19 00:14:30;;;;;;;23.10;15.20;;;11.60;99.90;;;;;;5054293;28;20187;-66
2023/02/19 00:16:56;;;;;;;25.33;17.87;;;11.70;99.90;;;;;;5057303;28;21241;-66
2023/02/19 00:19:22;;;;;;;25.53;19.50;;;11.80;99.90;;;;;;5058744;28;20183;-66
2023/02/19 00:21:51;;;;;;;24.60;17.70;;;11.60;99.90;;;;;;5059834;28;20183;-66
2023/02/19 00:24:17;;;;;;;27.03;19.47;;;11.60;99.90;;;;;;5061830;28;20209;-67
2023/02/19 00:26:44;;;;;;;26.90;20.50;;;11.60;99.90;;;;;;5063879;28;20527;-66
2023/02/19 00:29:18;;;;;;;27.90;19.03;;;11.60;99.90;;;;;;5065787;28;20424;-67
2023/02/19 00:31:44;;;;;;;26.80;19.93;;;11.70;99.90;;;;;;5065609;28;20507;-67
2023/02/19 00:34:11;;;;;;;34.13;22.83;;;11.70;99.90;;;;;;5057626;28;20446;-67
2023/02/19 00:36:39;;;;;;;26.47;19.80;;;11.80;99.90;;;;;;5055286;28;20653;-67
2023/02/19 00:39:06;;;;;;;34.30;21.47;;;11.70;99.90;;;;;;5056970;28;20424;-67
2023/02/19 00:41:33;;;;;;;30.37;21.33;;;11.70;99.90;;;;;;5054263;28;20531;-67
2023/02/19 00:44:01;;;;;;;28.17;21.53;;;11.70;99.90;;;;;;5070305;28;20425;-67
2023/02/19 00:46:29;;;;;;;29.63;21.57;;;11.80;99.90;;;;;;5068313;28;20982;-67
2023/02/19 00:48:55;;;;;;;28.70;21.40;;;11.70;99.90;;;;;;5059963;28;20445;-67
2023/02/19 00:51:23;;;;;;;28.90;22.23;;;11.70;99.90;;;;;;5061524;28;20443;-67
2023/02/19 00:53:48;;;;;;;34.57;23.40;;;11.80;99.90;;;;;;5063338;28;20962;-66
2023/02/19 00:56:14;;;;;;;32.40;23.30;;;11.80;99.90;;;;;;5065315;28;20478;-67
2023/02/19 00:58:40;;;;;;;33.17;24.10;;;11.80;99.90;;;;;;5066822;28;20616;-67
2023/02/19 01:01:06;;;;;;;32.40;24.53;;;11.80;99.90;;;;;;5068504;28;20174;-67
2023/02/19 01:03:33;;;;;;;30.50;22.73;;;11.70;99.90;;;;;;5070588;28;20174;-67
2023/02/19 01:05:59;;;;;;;34.87;24.43;;;11.60;99.90;;;;;;5072058;28;20550;-67
2023/02/19 01:08:25;;;;;;;30.90;21.90;;;11.60;99.90;;;;;;5072076;28;20432;-66
2023/02/19 01:10:50;;;;;;;34.33;22.93;;;11.70;99.90;;;;;;5070331;28;20780;-66
2023/02/19 01:13:16;;;;;;;28.03;21.40;;;11.70;99.90;;;;;;5068562;28;20170;-66
2023/02/19 01:15:42;;;;;;;30.50;20.73;;;11.70;99.90;;;;;;5066382;28;20221;-66
2023/02/19 01:18:07;;;;;;;23.13;17.70;;;11.70;99.90;;;;;;5064903;28;20273;-66
2023/02/19 01:20:33;;;;;;;30.43;17.70;;;11.80;99.90;;;;;;5062980;28;20241;-67
2023/02/19 01:22:59;;;;;;;20.93;15.90;;;11.80;99.90;;;;;;5060274;28;20179;-67
2023/02/19 01:25:24;;;;;;;22.00;17.97;;;11.80;99.90;;;;;;5058813;28;20722;-67
2023/02/19 01:27:50;;;;;;;20.83;14.90;;;11.80;99.90;;;;;;5057192;28;20171;-67
2023/02/19 01:30:16;;;;;;;18.73;14.80;;;11.70;99.90;;;;;;5037065;28;20182;-67
2023/02/19 01:32:41;;;;;;;24.13;16.20;;;11.70;99.90;;;;;;5053808;28;20548;-67
2023/02/19 01:35:07;;;;;;;21.97;17.10;;;11.80;99.90;;;;;;5052736;28;20187;-66
2023/02/19 01:37:32;;;;;;;21.90;16.73;;;11.70;99.90;;;;;;5054371;28;20277;-67
2023/02/19 01:39:58;;;;;;;21.87;17.60;;;11.70;99.90;;;;;;5055779;28;20225;-67
2023/02/19 01:42:23;;;;;;;23.37;17.70;;;11.70;99.90;;;;;;5058774;28;20209;-67
2023/02/19 01:45:21;;;;;;;25.37;16.43;;;11.70;99.90;;;;;;5059884;28;20271;-67
2023/02/19 01:48:03;;;;;;;23.87;18.27;;;11.70;99.90;;;;;;5023895;28;20792;-66
2023/02/19 01:50:31;;;;;;;31.80;20.30;;;11.80;99.90;;;;;;5062573;28;20429;-67
2023/02/19 01:52:59;;;;;;;27.07;19.77;;;11.90;99.90;;;;;;5059449;28;20960;-67
2023/02/19 01:55:25;;;;;;;26.07;19.93;;;11.80;99.90;;;;;;5057382;28;20952;-67
2023/02/19 01:57:53;;;;;;;35.30;20.30;;;11.70;99.90;;;;;;5055765;28;20453;-67
2023/02/19 02:00:19;;;;;;;32.13;22.60;;;11.80;99.90;;;;;;5053140;28;20509;-67
2023/02/19 02:02:50;;;;;;;29.07;21.30;;;11.80;99.90;;;;;;5060398;28;20441;-67
2023/02/19 02:05:36;;;;;;;31.47;21.90;;;11.70;99.90;;;;;;5066481;28;20987;-66
2023/02/19 02:10:47;;;;;;;32.27;22.20;;;11.70;99.90;;;;;;5066142;28;20426;-66
2023/02/19 02:13:12;;;;;;;30.30;22.27;;;11.80;99.90;;;;;;5064638;28;20425;-66
2023/02/19 02:15:50;;;;;;;33.50;23.30;;;11.70;99.90;;;;;;5062575;28;20487;-66
2023/02/19 02:18:45;;;;;;;28.40;21.03;;;11.70;99.90;;;;;;5060594;28;20185;-66
2023/02/19 02:21:14;;;;;;;26.40;19.00;;;11.70;99.90;;;;;;5058288;28;20428;-66
2023/02/19 02:24:17;;;;;;;28.33;20.00;;;11.80;99.90;;;;;;5055730;28;20759;-66
2023/02/19 02:27:26;;;;;;;26.13;18.97;;;11.80;99.90;;;;;;5054408;28;20433;-67
2023/02/19 02:29:51;;;;;;;27.23;17.87;;;11.80;99.90;;;;;;5053159;28;20438;-66
2023/02/19 02:32:25;;;;;;;31.70;19.67;;;11.80;99.90;;;;;;5054753;28;20469;-66
2023/02/19 02:35:09;;;;;;;26.57;17.03;;;11.70;99.90;;;;;;5056711;28;20175;-66
2023/02/19 02:37:38;;;;;;;22.93;16.90;;;11.80;99.90;;;;;;5060775;28;20467;-66
2023/02/19 02:40:06;;;;;;;21.43;15.60;;;11.70;99.90;;;;;;5064804;28;20454;-67
2023/02/19 02:42:33;;;;;;;24.30;16.17;;;11.70;99.90;;;;;;5066592;28;20440;-66
2023/02/19 02:45:35;;;;;;;20.97;15.33;;;11.80;99.90;;;;;;5065054;28;20467;-67
2023/02/19 02:48:15;;;;;;;24.33;16.00;;;11.80;99.90;;;;;;5061154;28;20436;-67
2023/02/19 02:50:57;;;;;;;29.77;18.47;;;11.70;99.90;;;;;;5060854;28;20523;-68
2023/02/19 02:56:25;;;;;;;29.77;20.43;;;11.60;99.90;;;;;;5056821;28;20431;-67
2023/02/19 02:58:52;;;;;;;27.40;18.33;;;11.60;99.90;;;;;;5058182;28;20871;-67
2023/02/19 03:04:36;;;;;;;22.97;17.43;;;11.70;99.90;;;;;;5070225;28;20439;-67
2023/02/19 03:07:08;;;;;;;30.00;18.33;;;11.70;99.90;;;;;;5066480;28;20432;-68
2023/02/19 03:09:40;;;;;;;31.87;20.93;;;11.70;99.90;;;;;;5066706;28;20491;-67
2023/02/19 03:20:42;;;;;;;33.43;22.33;;;11.50;99.90;;;;;;5073462;28;20424;-67
2023/02/19 03:23:09;;;;;;;35.30;21.97;;;11.50;99.90;;;;;;5072790;28;20440;-67
2023/02/19 03:29:21;;;;;;;36.73;23.20;;;11.40;99.90;;;;;;5070314;28;20776;-67
2023/02/19 03:31:18;;;;;;;35.10;22.63;;;11.50;99.90;;;;;;5069863;28;20956;-67
2023/02/19 03:33:46;;;;;;;30.30;20.00;;;11.60;99.90;;;;;;5068336;28;20844;-67
2023/02/19 03:36:14;;;;;;;29.00;20.30;;;11.60;99.90;;;;;;5066568;28;20425;-67
2023/02/19 03:38:43;;;;;;;31.70;21.10;;;11.70;99.90;;;;;;5064433;28;20437;-67
2023/02/19 05:32:41;;;;;;;20.70;15.07;;;11.50;99.90;;;;;;5037824;28;20485;-74
2023/02/19 05:35:07;;;;;;;24.00;16.23;;;11.50;99.90;;;;;;5049709;28;20441;-74
2023/02/19 05:37:33;;;;;;;28.77;15.93;;;11.50;99.90;;;;;;5051104;28;20301;-74
2023/02/19 05:39:59;;;;;;;19.43;15.80;;;11.50;99.90;;;;;;5033861;28;20462;-74
2023/02/19 05:42:24;;;;;;;21.00;15.37;;;11.50;99.90;;;;;;5038663;28;20191;-71
2023/02/19 05:44:50;;;;;;;20.43;14.57;;;11.50;99.90;;;;;;5049801;28;20211;-73
2023/02/19 05:47:16;;;;;;;19.57;13.87;;;11.50;99.90;;;;;;5048257;28;20277;-72
2023/02/19 05:49:41;;;;;;;19.87;13.97;;;11.50;99.90;;;;;;5028642;28;20179;-73
2023/02/19 05:52:07;;;;;;;21.50;15.63;;;11.40;99.90;;;;;;5045160;28;20179;-74
2023/02/19 05:54:32;;;;;;;22.43;15.27;;;11.40;99.90;;;;;;5042900;28;20642;-74
2023/02/19 05:56:58;;;;;;;22.37;15.63;;;11.30;99.90;;;;;;5041232;28;20278;-74
2023/02/19 05:59:25;;;;;;;25.07;15.90;;;11.40;99.90;;;;;;5039235;28;20196;-74
2023/02/19 06:01:52;;;;;;;25.80;16.70;;;11.40;99.90;;;;;;5019536;28;20684;-77
2023/02/19 06:04:19;;;;;;;26.23;16.37;;;11.50;99.90;;;;;;5035262;28;20933;-74
2023/02/19 06:06:45;;;;;;;19.60;15.80;;;11.50;99.90;;;;;;5033625;28;20497;-73
2023/02/19 06:09:11;;;;;;;22.17;16.57;;;11.50;99.90;;;;;;5034189;28;20426;-74
2023/02/19 06:11:37;;;;;;;27.33;15.30;;;11.50;99.90;;;;;;5035037;28;20438;-72
2023/02/19 06:14:04;;;;;;;18.13;14.60;;;11.50;99.90;;;;;;5037665;28;20422;-72
2023/02/19 06:16:32;;;;;;;22.20;14.93;;;11.50;99.90;;;;;;5038995;28;20817;-74
2023/02/19 06:18:57;;;;;;;27.07;14.40;;;11.60;99.90;;;;;;5040781;28;20460;-73
2023/02/19 06:21:23;;;;;;;19.60;13.50;;;11.60;99.90;;;;;;5042785;28;20423;-74
2023/02/19 06:23:48;;;;;;;19.10;14.63;;;11.60;99.90;;;;;;5040898;28;20191;-76
2023/02/19 06:26:23;;;;;;;17.93;14.57;;;11.60;99.90;;;;;;5039229;28;20307;-75
2023/02/19 06:28:53;;;;;;;22.63;14.70;;;11.40;99.90;;;;;;5037416;28;20217;-82
2023/02/19 06:31:20;;;;;;;18.97;13.10;;;11.40;99.90;;;;;;5049758;28;20473;-83
2023/02/19 06:33:46;;;;;;;18.87;13.37;;;11.40;99.90;;;;;;5033716;28;20470;-74
2023/02/19 06:36:18;;;;;;;23.00;13.93;;;11.40;99.90;;;;;;5014728;28;20944;-71
2023/02/19 06:38:44;;;;;;;18.27;14.67;;;11.30;99.90;;;;;;5016756;28;20438;-81
2023/02/19 06:41:11;;;;;;;18.80;14.03;;;11.40;99.90;;;;;;5036397;28;20437;-76
2023/02/19 06:43:37;;;;;;;27.03;13.83;;;11.40;99.90;;;;;;5044563;28;20430;-78
2023/02/19 06:46:04;;;;;;;24.40;15.10;;;11.50;99.90;;;;;;5040949;28;20477;-78
2023/02/19 06:48:31;;;;;;;23.03;15.67;;;11.50;99.90;;;;;;5043346;28;20487;-78
2023/02/19 06:50:57;;;;;;;20.60;13.70;;;11.50;99.90;;;;;;5045567;28;20429;-81
2023/02/19 06:53:23;;;;;;;21.40;12.93;;;11.50;99.90;;;;;;5048351;28;20532;-81
2023/02/19 06:56:04;;;;;;;19.60;13.83;;;11.50;99.90;;;;;;5049165;28;20432;-74
2023/02/19 06:58:30;;;;;;;22.97;14.87;;;11.40;99.90;;;;;;5049483;28;20791;-76
2023/02/19 07:00:56;;;;;;;23.17;13.37;;;11.40;99.90;;;;;;5051822;28;20757;-77
2023/02/19 07:03:22;;;;;;;23.40;13.60;;;11.40;99.90;;;;;;5052531;28;20490;-76
2023/02/19 07:05:48;;;;;;;19.70;14.00;;;11.40;99.90;;;;;;5049457;28;20234;-75
2023/02/19 07:08:16;;;;;;;22.07;13.63;;;11.50;99.90;;;;;;5047593;28;20421;-75
2023/02/19 07:10:42;;;;;;;18.67;14.50;;;11.40;99.90;;;;;;5045735;28;20262;-74
2023/02/19 07:13:08;;;;;;;24.97;14.67;;;11.40;99.90;;;;;;5025892;28;20872;-73
2023/02/19 07:15:33;;;;;;;22.43;13.93;;;11.40;99.90;;;;;;5024058;28;20517;-74
2023/02/19 07:17:59;;;;;;;16.93;13.40;;;11.40;99.90;;;;;;5039763;28;20518;-75
2023/02/19 07:20:24;;;;;;;21.57;12.60;;;11.30;99.90;;;;;;5038109;28;20274;-79
2023/02/19 07:22:50;;;;;;;16.57;12.50;;;11.50;99.90;;;;;;5037053;28;20186;-73
2023/02/19 07:25:15;;;;;;;14.87;12.33;;;11.50;99.90;;;;;;5038194;28;20202;-73
2023/02/19 07:27:41;;;;;;;16.70;12.93;;;11.50;99.90;;;;;;5036501;28;20195;-73
2023/02/19 07:30:07;;;;;;;15.03;13.50;;;11.60;99.90;;;;;;5035527;28;20183;-73
2023/02/19 07:32:32;;;;;;;16.17;12.53;;;11.60;99.90;;;;;;5036580;28;20231;-73
2023/02/19 07:34:58;;;;;;;16.47;13.17;;;11.50;99.90;;;;;;5038575;28;20440;-73
2023/02/19 07:37:24;;;;;;;16.87;15.23;;;11.40;99.90;;;;;;5040045;28;20270;-73
2023/02/19 07:39:49;;;;;;;18.00;13.47;;;11.40;99.90;;;;;;5044908;28;20187;-73
2023/02/19 07:42:15;;;;;;;16.50;12.13;;;11.50;99.90;;;;;;5045594;28;20249;-76
2023/02/19 07:44:40;;;;;;;21.30;12.23;;;11.40;99.90;;;;;;5043503;28;20199;-75
2023/02/19 07:47:06;;;;;;;16.20;12.70;;;11.40;99.90;;;;;;5041916;28;20188;-74
2023/02/19 07:49:32;;;;;;;16.40;13.10;;;11.30;99.90;;;;;;5024483;28;20187;-76
2023/02/19 07:51:57;;;;;;;15.07;13.10;;;11.30;99.90;;;;;;5041118;28;20198;-76
2023/02/19 07:54:23;;;;;;;15.93;12.17;;;11.40;99.90;;;;;;5043010;28;20474;-71
2023/02/19 07:56:48;;;;;;;14.47;12.47;;;11.40;99.90;;;;;;5034974;28;20216;-82
2023/02/19 07:59:14;;;;;;;23.57;15.33;;;11.30;99.90;;;;;;5039086;28;20194;-73
2023/02/19 08:04:24;;;;;;;22.70;14.60;;;11.30;99.90;;;;;;5046770;28;20522;-75
2023/02/19 08:06:51;;;;;;;19.60;13.40;;;11.30;99.90;;;;;;5046641;28;20534;-78
2023/02/19 08:09:17;;;;;;;21.37;14.37;;;11.30;99.90;;;;;;5045832;28;20180;-78
2023/02/19 08:14:27;;;;;;;17.03;13.07;;;11.40;99.90;;;;;;5041537;28;20214;-78
2023/02/19 08:16:53;;;;;;;20.10;14.17;;;11.40;99.90;;;;;;5048440;28;20511;-77
2023/02/19 08:19:19;;;;;;;18.53;13.20;;;11.40;99.90;;;;;;5032306;28;20468;-76
2023/02/19 08:21:47;;;;;;;17.37;12.47;;;11.50;99.90;;;;;;5051733;28;20814;-79
2023/02/19 08:24:13;;;;;;;13.63;11.83;;;11.40;99.90;;;;;;5045411;28;20484;-76
2023/02/19 08:26:38;;;;;;;18.40;13.87;;;11.40;99.90;;;;;;5035158;28;20474;-76
2023/02/19 08:29:05;;;;;;;18.13;12.23;;;11.40;99.90;;;;;;5037553;28;20183;-77
2023/02/19 08:31:31;;;;;;;18.03;12.17;;;11.50;99.90;;;;;;5048370;28;20240;-75
2023/02/19 08:33:56;;;;;;;14.77;11.20;;;11.50;99.90;;;;;;5051664;28;20820;-75
2023/02/19 08:36:22;;;;;;;13.50;11.77;;;11.50;99.90;;;;;;5051770;28;20461;-75
2023/02/19 08:38:48;;;;;;;13.93;11.63;;;11.50;99.90;;;;;;5050783;28;20225;-73
2023/02/19 08:41:14;;;;;;;14.10;10.80;;;11.50;99.90;;;;;;5052257;28;20192;-73
2023/02/19 08:43:41;;;;;;;16.17;11.57;;;11.50;99.90;;;;;;5049028;28;20179;-73
2023/02/19 08:46:08;;;;;;;21.40;12.57;;;11.50;99.90;;;;;;5050048;28;20461;-73
2023/02/19 08:48:34;;;;;;;17.27;11.50;;;11.50;99.90;;;;;;5038294;28;20430;-73
2023/02/19 08:51:02;;;;;;;14.33;10.30;;;11.60;99.90;;;;;;5044588;28;20495;-74
2023/02/19 08:53:30;;;;;;;15.80;11.77;;;11.60;99.90;;;;;;5045624;28;20179;-73
2023/02/19 08:55:56;;;;;;;14.57;11.00;;;11.60;99.90;;;;;;5048634;28;20445;-73
2023/02/19 08:58:21;;;;;;;19.60;11.90;;;11.60;99.90;;;;;;5049102;28;20912;-73
2023/02/19 09:00:47;;;;;;;15.97;11.73;;;11.60;99.90;;;;;;5049680;28;20207;-74
2023/02/19 09:03:13;;;;;;;13.13;10.57;;;11.60;99.90;;;;;;5049332;28;20183;-73
2023/02/19 09:05:39;;;;;;;13.60;10.83;;;11.70;99.90;;;;;;5042989;28;20207;-74
2023/02/19 09:08:05;;;;;;;14.57;9.93;;;11.70;99.90;;;;;;5044776;28;20422;-74
2023/02/19 09:10:30;;;;;;;18.33;12.90;;;11.70;99.90;;;;;;5045275;28;20431;-72
2023/02/19 09:12:56;;;;;;;20.10;10.70;;;11.80;99.90;;;;;;5048339;28;20179;-69
2023/02/19 09:15:21;;;;;;;18.37;10.90;;;11.90;99.90;;;;;;5046505;28;20187;-69
2023/02/19 09:17:51;;;;;;;15.53;9.70;;;12.10;99.90;;;;;;5046345;28;20175;-69
2023/02/19 09:20:17;;;;;;;13.00;8.40;;;12.10;99.90;;;;;;5046475;28;20592;-69
2023/02/19 09:22:43;;;;;;;18.13;11.60;;;12.10;99.90;;;;;;5048531;28;20426;-70
2023/02/19 09:25:08;;;;;;;17.77;11.37;;;12.10;99.90;;;;;;5049214;28;20245;-70
2023/02/19 09:27:34;;;;;;;18.40;11.13;;;12.20;99.90;;;;;;5049120;28;20225;-70
2023/02/19 09:29:59;;;;;;;21.23;13.07;;;12.10;99.90;;;;;;5049355;28;20183;-71
2023/02/19 09:32:25;;;;;;;18.63;12.63;;;12.20;99.90;;;;;;5024613;28;20236;-71
2023/02/19 09:34:50;;;;;;;18.27;11.60;;;12.10;99.90;;;;;;5044335;28;20700;-71
2023/02/19 09:37:16;;;;;;;15.10;11.07;;;12.00;99.90;;;;;;5050134;28;20532;-70
2023/02/19 09:39:41;;;;;;;14.80;11.43;;;12.00;99.90;;;;;;5048278;28;20183;-73
2023/02/19 09:42:22;;;;;;;18.93;13.20;;;12.00;99.90;;;;;;5047571;28;20174;-72
2023/02/19 09:44:50;;;;;;;16.20;12.13;;;12.00;99.90;;;;;;5040964;28;20194;-73
2023/02/19 09:47:28;;;;;;;20.87;11.30;;;11.90;99.90;;;;;;5051723;28;20525;-73
2023/02/19 09:49:59;;;;;;;19.90;12.80;;;11.90;99.90;;;;;;5017335;28;20448;-73
2023/02/19 09:52:31;;;;;;;18.80;12.37;;;11.90;99.90;;;;;;5036784;28;20492;-74
2023/02/19 09:55:03;;;;;;;15.97;12.27;;;11.90;99.90;;;;;;5038551;28;20425;-77
2023/02/19 09:57:31;;;;;;;23.50;12.20;;;11.80;99.90;;;;;;5044854;28;20428;-77
2023/02/19 10:00:13;;;;;;;16.20;12.77;;;11.80;99.90;;;;;;5046854;28;20437;-73
2023/02/19 10:02:38;;;;;;;17.87;11.00;;;11.70;99.90;;;;;;5051076;28;20510;-76
2023/02/19 10:05:15;;;;;;;14.03;10.50;;;11.80;99.90;;;;;;5050782;28;20971;-76
2023/02/19 10:07:47;;;;;;;11.40;9.67;;;11.80;99.90;;;;;;5047143;28;20898;-74
2023/02/19 10:10:12;;;;;;;13.63;9.60;;;11.90;99.90;;;;;;5048682;28;20858;-74
2023/02/19 10:12:45;;;;;;;15.20;9.97;;;11.80;99.90;;;;;;5045175;28;20458;-72
2023/02/19 10:15:10;;;;;;;20.30;9.50;;;11.80;99.90;;;;;;5044933;28;20178;-74
2023/02/19 10:17:36;;;;;;;20.00;10.67;;;11.90;99.90;;;;;;5041454;28;20788;-75
2023/02/19 10:20:03;;;;;;;14.30;8.93;;;11.90;99.90;;;;;;5039423;28;20171;-74
2023/02/19 10:22:34;;;;;;;12.20;9.77;;;11.80;99.90;;;;;;5042461;28;20252;-74
2023/02/19 10:25:00;;;;;;;20.03;10.43;;;11.80;99.90;;;;;;5048069;28;20464;-75
2023/02/19 10:27:30;;;;;;;18.57;13.43;;;11.80;99.90;;;;;;5044510;28;20442;-74
2023/02/19 10:29:57;;;;;;;12.43;10.30;;;11.70;99.90;;;;;;5042624;28;20446;-76
2023/02/19 10:32:26;;;;;;;17.33;10.30;;;11.80;99.90;;;;;;5043283;28;20488;-74
2023/02/19 10:35:14;;;;;;;14.00;9.80;;;11.70;99.90;;;;;;5045848;28;20491;-74
2023/02/19 10:37:49;;;;;;;16.83;10.60;;;11.60;99.90;;;;;;5047257;28;20963;-72
2023/02/19 10:40:17;;;;;;;15.57;10.70;;;11.60;99.90;;;;;;5048562;28;20468;-74
2023/02/19 10:42:49;;;;;;;13.23;9.97;;;11.70;99.90;;;;;;5046179;28;20442;-73
2023/02/19 10:45:21;;;;;;;11.30;9.37;;;11.70;99.90;;;;;;5041567;28;20449;-74
2023/02/19 10:47:48;;;;;;;11.10;9.90;;;11.80;99.90;;;;;;5044746;28;20445;-75
2023/02/19 10:50:29;;;;;;;14.03;10.63;;;11.80;99.90;;;;;;5047485;28;20429;-75
2023/02/19 10:52:56;;;;;;;14.00;10.10;;;11.80;99.90;;;;;;5042079;28;20441;-74
2023/02/19 10:55:22;;;;;;;13.93;9.47;;;11.80;99.90;;;;;;5040812;28;20449;-75
2023/02/19 10:57:49;;;;;;;11.83;10.07;;;11.80;99.90;;;;;;5037790;28;20434;-73
2023/02/19 11:00:14;;;;;;;11.33;8.90;;;11.80;99.90;;;;;;5048086;28;20240;-73
2023/02/19 11:02:41;;;;;;;17.10;9.53;;;11.80;99.90;;;;;;5045366;28;20510;-74
2023/02/19 11:05:16;;;;;;;17.23;10.43;;;11.80;99.90;;;;;;5037831;28;20211;-76
2023/02/19 11:07:47;;;;;;;15.63;9.80;;;11.70;99.90;;;;;;5034027;28;20422;-74
2023/02/19 11:10:25;;;;;;;10.63;9.53;;;11.70;99.90;;;;;;5046870;28;20946;-75
2023/02/19 11:12:53;;;;;;;12.07;8.63;;;11.70;99.90;;;;;;5036514;28;20453;-75
2023/02/19 11:15:28;;;;;;;9.57;8.40;;;11.80;99.90;;;;;;5048462;28;20433;-72
2023/02/19 11:17:57;;;;;;;13.90;9.17;;;11.70;99.90;;;;;;5050884;28;20491;-77
2023/02/19 11:20:23;;;;;;;11.40;7.80;;;11.70;99.90;;;;;;5052205;28;20940;-72
2023/02/19 11:22:49;;;;;;;9.70;6.00;;;11.70;99.90;;;;;;5052586;28;20437;-67
2023/02/19 11:25:15;;;;;;;9.53;7.30;;;12.20;99.90;;;;;;5050413;28;20483;-73
2023/02/19 11:27:56;;;;;;;7.60;5.80;;;12.40;99.90;;;;;;5052357;28;20187;-72
2023/02/19 11:30:47;;;;;;;11.83;5.87;;;12.30;99.90;;;;;;5050526;28;20417;-72
2023/02/19 11:33:15;;;;;;;11.90;5.33;;;12.30;99.90;;;;;;5041411;28;20495;-74
2023/02/19 11:35:46;;;;;;;6.00;5.03;;;12.20;99.90;;;;;;5034688;28;20466;-74
2023/02/19 11:38:15;;;;;;;5.63;5.00;;;12.20;99.90;;;;;;5035504;28;20794;-74
2023/02/19 11:41:02;;;;;;;7.57;4.97;;;12.20;99.90;;;;;;5038383;28;20441;-71
2023/02/19 11:43:51;;;;;;;12.40;6.47;;;12.20;99.90;;;;;;5042509;28;20425;-72
2023/02/19 11:46:54;;;;;;;7.57;5.83;;;12.20;99.90;;;;;;5042112;28;20982;-72
2023/02/19 11:50:00;;;;;;;11.33;5.97;;;12.30;99.90;;;;;;5045251;28;20429;-73
2023/02/19 11:52:41;;;;;;;7.60;4.73;;;12.20;99.90;;;;;;5041606;28;20963;-73
2023/02/19 11:55:36;;;;;;;9.70;5.70;;;12.20;99.90;;;;;;5040083;28;20442;-74
2023/02/19 11:58:25;;;;;;;9.80;6.27;;;12.10;99.90;;;;;;5037885;28;20434;-71
2023/02/19 12:01:04;;;;;;;6.50;5.87;;;12.20;99.90;;;;;;5035989;28;20496;-71
2023/02/19 12:03:42;;;;;;;11.93;7.20;;;12.30;99.90;;;;;;5034888;28;20474;-71
2023/02/19 12:06:29;;;;;;;8.40;5.33;;;12.30;99.90;;;;;;5045970;28;20560;-71
2023/02/19 12:09:25;;;;;;;10.70;6.13;;;12.30;99.90;;;;;;5038130;28;20422;-71
2023/02/19 12:12:00;;;;;;;8.57;5.70;;;12.30;99.90;;;;;;5040079;28;20472;-71
2023/02/19 12:14:28;;;;;;;10.30;6.53;;;12.20;99.90;;;;;;5042656;28;20420;-70
2023/02/19 12:17:02;;;;;;;11.53;8.40;;;12.20;99.90;;;;;;5044538;28;20940;-70
2023/02/19 12:19:38;;;;;;;12.17;8.33;;;12.20;99.90;;;;;;5042715;28;20977;-71
2023/02/19 12:22:09;;;;;;;14.33;8.83;;;12.20;99.90;;;;;;5048561;28;20440;-71
2023/02/19 12:24:49;;;;;;;10.10;8.50;;;12.20;99.90;;;;;;5050880;28;20762;-70
2023/02/19 12:27:34;;;;;;;12.07;8.50;;;12.10;99.90;;;;;;5052395;28;20441;-71
2023/02/19 12:30:18;;;;;;;9.63;8.50;;;12.00;99.90;;;;;;5054501;28;20422;-71
2023/02/19 12:33:01;;;;;;;8.53;7.20;;;11.90;99.90;;;;;;5032745;28;20442;-71
2023/02/19 12:35:34;;;;;;;8.57;7.70;;;11.80;99.90;;;;;;5030742;28;20465;-71
2023/02/19 12:38:03;;;;;;;8.63;6.90;;;11.80;99.90;;;;;;5020354;28;20431;-71
2023/02/19 12:40:52;;;;;;;8.10;6.60;;;11.70;99.90;;;;;;5021855;28;20433;-71
2023/02/19 12:43:22;;;;;;;11.97;7.73;;;11.60;99.90;;;;;;5030213;28;20457;-71
2023/02/19 12:46:02;;;;;;;9.43;7.50;;;11.60;99.90;;;;;;5030496;28;20483;-71
2023/02/19 12:48:34;;;;;;;8.67;6.70;;;11.40;99.90;;;;;;5028983;28;20422;-71
2023/02/19 12:51:09;;;;;;;10.40;8.07;;;11.40;99.90;;;;;;5032290;28;20492;-71
2023/02/19 12:53:43;;;;;;;8.10;6.57;;;11.40;99.90;;;;;;5027429;28;20410;-71
2023/02/19 12:56:19;;;;;;;7.50;6.70;;;11.40;99.90;;;;;;5032031;28;20825;-71
2023/02/19 12:58:50;;;;;;;10.50;8.53;;;11.40;99.90;;;;;;5026095;28;20446;-71
2023/02/19 13:01:30;;;;;;;13.40;8.47;;;11.40;99.90;;;;;;5027722;28;20446;-71
2023/02/19 13:04:15;;;;;;;10.80;8.10;;;11.30;99.90;;;;;;5028344;28;20454;-71
2023/02/19 13:06:56;;;;;;;10.80;8.70;;;11.30;99.90;;;;;;5031266;28;20474;-71
2023/02/19 13:09:45;;;;;;;11.17;8.37;;;11.20;99.90;;;;;;5031209;28;20491;-71
2023/02/19 13:12:17;;;;;;;10.80;8.17;;;11.10;99.90;;;;;;5030711;28;20500;-74
2023/02/19 13:14:51;;;;;;;13.90;9.27;;;11.00;99.90;;;;;;5032482;28;20955;-74
2023/02/19 13:17:39;;;;;;;11.50;8.30;;;10.90;99.90;;;;;;5028345;28;20965;-74
2023/02/19 13:20:30;;;;;;;12.00;8.97;;;10.90;99.90;;;;;;5015589;28;20798;-74
2023/02/19 13:26:20;;;;;;;12.80;8.50;;;10.80;99.90;;;;;;4981262;28;20918;-73
2023/02/19 13:28:58;;;;;;;12.40;9.23;;;10.80;99.90;;;;;;5029534;28;20905;-74
2023/02/19 13:31:43;;;;;;;111.27;52.80;;;10.80;99.90;;;;;;5039639;28;20465;-74
2023/02/19 13:34:14;;;;;;;18.93;11.63;;;10.80;99.90;;;;;;5047998;28;20445;-74
2023/02/19 13:36:40;;;;;;;16.17;10.70;;;10.90;99.90;;;;;;5051858;28;20992;-75
2023/02/19 13:39:06;;;;;;;14.60;9.00;;;10.90;99.90;;;;;;5050163;28;20430;-74
2023/02/19 13:41:52;;;;;;;15.77;10.30;;;10.90;99.90;;;;;;5051470;28;20833;-73
2023/02/19 13:44:20;;;;;;;15.23;8.70;;;10.90;99.90;;;;;;5050873;28;20500;-73
2023/02/19 13:46:47;;;;;;;13.30;8.60;;;10.90;99.90;;;;;;5047932;28;20498;-73
2023/02/19 13:49:21;;;;;;;11.40;9.20;;;11.00;99.90;;;;;;5046920;28;21003;-75
2023/02/19 13:51:56;;;;;;;11.20;8.17;;;11.00;99.90;;;;;;5047493;28;20792;-73
2023/02/19 13:54:26;;;;;;;9.70;7.00;;;11.00;99.90;;;;;;5048917;28;20946;-73
2023/02/19 13:57:23;;;;;;;9.70;8.03;;;11.00;99.90;;;;;;5047965;28;20805;-73
2023/02/19 13:59:51;;;;;;;13.07;9.40;;;11.00;99.90;;;;;;5041158;28;20441;-73
2023/02/19 14:02:19;;;;;;;11.53;8.00;;;10.90;99.90;;;;;;5048431;28;20957;-73
2023/02/19 14:04:54;;;;;;;10.00;7.27;;;10.90;99.90;;;;;;5048701;28;20897;-73
2023/02/19 14:07:26;;;;;;;16.20;7.40;;;10.90;99.90;;;;;;5048650;28;20437;-73
2023/02/19 14:09:52;;;;;;;8.40;6.20;;;10.90;99.90;;;;;;5050463;28;20460;-73
2023/02/19 14:12:21;;;;;;;5.80;5.00;;;10.80;99.90;;;;;;5048824;28;20433;-72
2023/02/19 14:14:47;;;;;;;7.80;5.67;;;10.80;99.90;;;;;;5046471;28;20775;-73
2023/02/19 14:17:32;;;;;;;5.90;5.30;;;10.90;99.90;;;;;;5047996;28;20490;-73
2023/02/19 14:20:15;;;;;;;10.43;7.70;;;10.90;99.90;;;;;;5046506;28;20446;-73
2023/02/19 14:25:21;;;;;;;8.10;5.93;;;10.90;99.90;;;;;;5046403;28;20464;-73
2023/02/19 14:27:47;;;;;;;7.70;6.00;;;10.90;99.90;;;;;;5048295;28;20430;-71
2023/02/19 14:30:14;;;;;;;18.57;11.70;;;10.90;99.90;;;;;;5050447;28;20425;-78
2023/02/19 14:32:40;;;;;;;7.33;6.50;;;10.90;99.90;;;;;;5057519;28;20465;-79
2023/02/19 14:35:17;;;;;;;8.87;6.50;;;10.90;99.90;;;;;;5056017;28;20440;-81
2023/02/19 14:37:44;;;;;;;8.23;7.00;;;10.90;99.90;;;;;;5051739;28;20945;-76
2023/02/19 14:40:19;;;;;;;10.37;7.17;;;10.90;99.90;;;;;;5053844;28;20980;-80
2023/02/19 14:42:44;;;;;;;7.53;6.30;;;11.00;99.90;;;;;;5056658;28;20421;-79
2023/02/19 14:45:14;;;;;;;11.13;7.07;;;11.00;99.90;;;;;;5054116;28;20461;-84
2023/02/19 14:47:42;;;;;;;8.53;6.20;;;11.10;99.90;;;;;;5049695;28;20280;-82
2023/02/19 14:50:12;;;;;;;8.70;7.07;;;11.20;99.90;;;;;;5054403;28;20441;-74
2023/02/19 14:52:44;;;;;;;8.40;7.60;;;11.10;99.90;;;;;;5046833;28;20484;-77
2023/02/19 14:55:23;;;;;;;7.40;6.47;;;11.10;99.90;;;;;;5051052;28;20795;-76
2023/02/19 14:57:52;;;;;;;9.53;7.80;;;11.10;99.90;;;;;;5055076;28;20437;-79
2023/02/19 15:00:21;;;;;;;11.00;7.80;;;11.10;99.90;;;;;;5055089;28;20437;-76
2023/02/19 15:02:49;;;;;;;9.80;8.10;;;11.10;99.90;;;;;;5053135;28;20426;-79
2023/02/19 15:05:22;;;;;;;9.13;8.00;;;11.10;99.90;;;;;;5057772;28;20444;-77
2023/02/19 15:07:49;;;;;;;10.43;8.20;;;11.10;99.90;;;;;;5043263;28;20439;-76
2023/02/19 15:10:14;;;;;;;12.10;8.87;;;11.10;99.90;;;;;;5049286;28;20496;-77
2023/02/19 15:13:02;;;;;;;12.70;9.17;;;11.10;99.90;;;;;;5047055;28;20429;-80